Ivoryton, CT (06442)

7:14 AM EST on December 25, 2014 (GMT -0500)
Essex Elementary School | Change Station
CLOSE
Current Station
Personal Weather Station
Location: Centerbrook, CT
Elevation: 89 ft
Nearby Weather Stations

Elev 89 ft 41.35 °N, 72.42 °W | Updated 2 seconds ago

Rain
Rain
56.0 °F
Feels Like 56.0 °F
N
5.0
Wind Variable Wind from SW
Gusts 8.0 mph

Today
High -- | Low -- °F
--% Chance of Precip.
Yesterday
High -- | Low -- °F
Precip. -- in
7:14 AM 4:25 PM
Waxing Crescent, 16% visible
Pressure 29.56 in
Visibility 5.0 miles
Clouds Overcast 100 ft
Dew Point 55 °F
Humidity 97%
Rainfall 0.05 in
Snow Depth Not available.
UV 0 out of 12
Pollen .10 out of 12
Air Quality Not available.
Flu Activity Not available.
METAR KSNC 251155Z AUTO 24007KT 010V010 5SM -RA OVC001 13/13 A2956 RMK AO2 P0005

More Conditions Fewer Conditions

Pressure 29.56 in
Visibility 5.0 miles
Clouds Overcast 100 ft
Dew Point 55 °F
Humidity 97%
Rainfall 0.05 in
Snow Depth Not available.
UV 0 out of 12
Pollen .10 out of 12
Air Quality Not available.
Flu Activity Not available.
METAR KSNC 251155Z AUTO 24007KT 010V010 5SM -RA OVC001 13/13 A2956 RMK AO2 P0005

More Conditions Fewer Conditions

10-Day Weather Forecast

Almanac

Astronomy

Dec. 25, 2014 Rise Set
Actual Time
Civil Twilight
Nautical Twilight
Astronomical Twilight
Moon
Length of Visible Light
Length of Day
Tomorrow will be .
, % of the Moon is Illuminated

Today's Extremes

State Highs State Lows

Community

WunderPhotos

Upload Photos

1,780,264 photos uploaded!

WunderBlogs® & News

Nearby

Air Quality

  Air Quality AQ Index Pollutant
Not available.

Snow Depth

Station Depth Elevation

Earthquake Activity

City Distance Mag. Time & Date
Minimum magnitude displayed is 2.5.

Coastal Water Temperatures

Place Temperature

Nearby Weather Stations